sensor_id;sensor_type;location;lat;lon;timestamp;pressure;altitude;pressure_sealevel;temperature;humidity
54512;BME280;40419;47.438;19.026;2023-04-15T00:02:18;98784.88;;;4.90;100.00
54512;BME280;40419;47.438;19.026;2023-04-15T00:04:49;98785.41;;;4.79;100.00
54512;BME280;40419;47.438;19.026;2023-04-15T00:07:14;98788.16;;;4.86;100.00
54512;BME280;40419;47.438;19.026;2023-04-15T00:09:42;98785.13;;;4.74;100.00
54512;BME280;40419;47.438;19.026;2023-04-15T00:12:13;98784.72;;;4.70;100.00
54512;BME280;40419;47.438;19.026;2023-04-15T00:14:41;98787.53;;;4.84;100.00
54512;BME280;40419;47.438;19.026;2023-04-15T00:17:06;98793.19;;;4.95;100.00
54512;BME280;40419;47.438;19.026;2023-04-15T00:19:32;98792.53;;;4.93;100.00
54512;BME280;40419;47.438;19.026;2023-04-15T00:22:02;98785.28;;;4.87;100.00
54512;BME280;40419;47.438;19.026;2023-04-15T00:24:30;98792.81;;;4.99;100.00
54512;BME280;40419;47.438;19.026;2023-04-15T00:27:00;98785.09;;;4.89;100.00
54512;BME280;40419;47.438;19.026;2023-04-15T00:29:26;98777.50;;;4.92;100.00
54512;BME280;40419;47.438;19.026;2023-04-15T00:31:54;98770.03;;;4.88;100.00
54512;BME280;40419;47.438;19.026;2023-04-15T00:34:22;98782.00;;;4.92;100.00
54512;BME280;40419;47.438;19.026;2023-04-15T00:36:51;98771.09;;;4.93;100.00
54512;BME280;40419;47.438;19.026;2023-04-15T00:39:16;98774.84;;;4.99;100.00
54512;BME280;40419;47.438;19.026;2023-04-15T00:41:43;98782.59;;;5.09;100.00
54512;BME280;40419;47.438;19.026;2023-04-15T00:44:10;98785.00;;;5.04;100.00
54512;BME280;40419;47.438;19.026;2023-04-15T00:46:38;98779.91;;;5.09;100.00
54512;BME280;40419;47.438;19.026;2023-04-15T00:49:06;98781.25;;;4.98;100.00
54512;BME280;40419;47.438;19.026;2023-04-15T00:51:35;98770.63;;;5.11;100.00
54512;BME280;40419;47.438;19.026;2023-04-15T00:54:06;98776.13;;;5.03;100.00
54512;BME280;40419;47.438;19.026;2023-04-15T00:56:35;98769.75;;;5.04;100.00
54512;BME280;40419;47.438;19.026;2023-04-15T00:59:05;98771.88;;;5.09;100.00
54512;BME280;40419;47.438;19.026;2023-04-15T01:01:33;98773.56;;;5.17;100.00
54512;BME280;40419;47.438;19.026;2023-04-15T01:03:59;98767.34;;;5.16;100.00
54512;BME280;40419;47.438;19.026;2023-04-15T01:06:26;98777.69;;;5.19;100.00
54512;BME280;40419;47.438;19.026;2023-04-15T01:08:56;98764.81;;;5.08;100.00
54512;BME280;40419;47.438;19.026;2023-04-15T01:11:26;98764.56;;;5.03;100.00
54512;BME280;40419;47.438;19.026;2023-04-15T01:13:55;98756.19;;;5.12;100.00
54512;BME280;40419;47.438;19.026;2023-04-15T01:16:25;98760.75;;;5.12;100.00
54512;BME280;40419;47.438;19.026;2023-04-15T01:18:51;98768.25;;;5.23;100.00
54512;BME280;40419;47.438;19.026;2023-04-15T01:21:17;98760.81;;;5.25;100.00
54512;BME280;40419;47.438;19.026;2023-04-15T01:23:46;98765.84;;;5.07;100.00
54512;BME280;40419;47.438;19.026;2023-04-15T01:26:17;98766.34;;;5.17;100.00
54512;BME280;40419;47.438;19.026;2023-04-15T01:28:46;98767.63;;;5.21;100.00
54512;BME280;40419;47.438;19.026;2023-04-15T01:31:19;98760.06;;;5.31;100.00
54512;BME280;40419;47.438;19.026;2023-04-15T01:33:49;98775.88;;;5.20;100.00
54512;BME280;40419;47.438;19.026;2023-04-15T01:36:14;98779.06;;;5.08;100.00
54512;BME280;40419;47.438;19.026;2023-04-15T01:38:40;98776.44;;;5.15;100.00
54512;BME280;40419;47.438;19.026;2023-04-15T01:41:08;98767.94;;;5.11;100.00
54512;BME280;40419;47.438;19.026;2023-04-15T01:43:38;98772.81;;;5.29;100.00
54512;BME280;40419;47.438;19.026;2023-04-15T01:46:07;98777.31;;;5.22;100.00
54512;BME280;40419;47.438;19.026;2023-04-15T01:48:38;98765.44;;;5.31;100.00
54512;BME280;40419;47.438;19.026;2023-04-15T01:51:03;98774.97;;;5.41;100.00
54512;BME280;40419;47.438;19.026;2023-04-15T01:53:29;98771.25;;;5.42;100.00
54512;BME280;40419;47.438;19.026;2023-04-15T01:55:54;98778.88;;;5.38;100.00
54512;BME280;40419;47.438;19.026;2023-04-15T01:58:22;98776.91;;;5.25;100.00
54512;BME280;40419;47.438;19.026;2023-04-15T02:00:48;98775.78;;;5.35;100.00
54512;BME280;40419;47.438;19.026;2023-04-15T02:03:13;98782.84;;;5.42;100.00
54512;BME280;40419;47.438;19.026;2023-04-15T02:05:44;98787.03;;;5.52;100.00
54512;BME280;40419;47.438;19.026;2023-04-15T02:08:12;98782.78;;;5.36;100.00
54512;BME280;40419;47.438;19.026;2023-04-15T02:10:38;98783.34;;;5.53;100.00
54512;BME280;40419;47.438;19.026;2023-04-15T02:13:04;98784.56;;;5.57;100.00
54512;BME280;40419;47.438;19.026;2023-04-15T02:15:32;98783.88;;;5.48;100.00
54512;BME280;40419;47.438;19.026;2023-04-15T02:17:58;98784.97;;;5.54;100.00
54512;BME280;40419;47.438;19.026;2023-04-15T02:20:27;98779.41;;;5.55;100.00
54512;BME280;40419;47.438;19.026;2023-04-15T02:22:56;98777.38;;;5.57;100.00
54512;BME280;40419;47.438;19.026;2023-04-15T02:25:26;98778.81;;;5.60;100.00
54512;BME280;40419;47.438;19.026;2023-04-15T02:27:52;98788.81;;;5.73;100.00
54512;BME280;40419;47.438;19.026;2023-04-15T02:30:22;98782.53;;;5.59;100.00
54512;BME280;40419;47.438;19.026;2023-04-15T02:32:52;98779.97;;;5.44;100.00
54512;BME280;40419;47.438;19.026;2023-04-15T02:35:17;98790.69;;;5.44;100.00
54512;BME280;40419;47.438;19.026;2023-04-15T02:37:45;98787.28;;;5.28;100.00
54512;BME280;40419;47.438;19.026;2023-04-15T02:40:11;98789.84;;;5.43;100.00
54512;BME280;40419;47.438;19.026;2023-04-15T02:42:42;98787.63;;;5.47;100.00
54512;BME280;40419;47.438;19.026;2023-04-15T02:45:11;98788.09;;;5.57;100.00
54512;BME280;40419;47.438;19.026;2023-04-15T02:47:45;98785.81;;;5.54;100.00
54512;BME280;40419;47.438;19.026;2023-04-15T02:50:13;98779.69;;;5.67;100.00
54512;BME280;40419;47.438;19.026;2023-04-15T02:52:41;98784.78;;;5.55;100.00
54512;BME280;40419;47.438;19.026;2023-04-15T02:55:12;98776.56;;;5.63;100.00
54512;BME280;40419;47.438;19.026;2023-04-15T02:57:42;98780.91;;;5.64;100.00
54512;BME280;40419;47.438;19.026;2023-04-15T03:00:13;98780.91;;;5.64;100.00
54512;BME280;40419;47.438;19.026;2023-04-15T03:02:45;98785.84;;;5.61;100.00
54512;BME280;40419;47.438;19.026;2023-04-15T03:05:14;98779.47;;;5.62;100.00
54512;BME280;40419;47.438;19.026;2023-04-15T03:07:47;98783.59;;;5.64;100.00
54512;BME280;40419;47.438;19.026;2023-04-15T03:10:15;98777.97;;;5.53;100.00
54512;BME280;40419;47.438;19.026;2023-04-15T03:12:41;98782.97;;;5.62;100.00
54512;BME280;40419;47.438;19.026;2023-04-15T03:15:14;98780.09;;;5.64;100.00
54512;BME280;40419;47.438;19.026;2023-04-15T03:17:43;98774.50;;;5.65;100.00
54512;BME280;40419;47.438;19.026;2023-04-15T03:20:09;98776.19;;;5.66;100.00
54512;BME280;40419;47.438;19.026;2023-04-15T03:22:35;98779.19;;;5.50;100.00
54512;BME280;40419;47.438;19.026;2023-04-15T03:25:06;98773.00;;;5.56;100.00
54512;BME280;40419;47.438;19.026;2023-04-15T03:27:38;98773.97;;;5.77;100.00
54512;BME280;40419;47.438;19.026;2023-04-15T03:30:06;98773.72;;;5.72;100.00
54512;BME280;40419;47.438;19.026;2023-04-15T03:32:35;98768.81;;;5.82;100.00
54512;BME280;40419;47.438;19.026;2023-04-15T03:35:00;98772.91;;;5.78;100.00
54512;BME280;40419;47.438;19.026;2023-04-15T03:37:26;98777.28;;;5.79;100.00
54512;BME280;40419;47.438;19.026;2023-04-15T03:39:56;98763.16;;;5.70;100.00
54512;BME280;40419;47.438;19.026;2023-04-15T03:42:27;98778.66;;;5.68;100.00
54512;BME280;40419;47.438;19.026;2023-04-15T03:44:58;98782.16;;;5.68;100.00
54512;BME280;40419;47.438;19.026;2023-04-15T03:47:26;98780.56;;;5.74;100.00
54512;BME280;40419;47.438;19.026;2023-04-15T03:49:51;98777.41;;;5.64;100.00
54512;BME280;40419;47.438;19.026;2023-04-15T03:52:19;98769.34;;;5.64;100.00
54512;BME280;40419;47.438;19.026;2023-04-15T03:54:47;98761.97;;;5.73;100.00
54512;BME280;40419;47.438;19.026;2023-04-15T03:57:16;98772.06;;;5.71;100.00
54512;BME280;40419;47.438;19.026;2023-04-15T03:59:44;98762.50;;;5.61;100.00
54512;BME280;40419;47.438;19.026;2023-04-15T04:02:12;98770.81;;;5.66;100.00
54512;BME280;40419;47.438;19.026;2023-04-15T04:04:40;98774.59;;;5.85;100.00
54512;BME280;40419;47.438;19.026;2023-04-15T04:07:16;98773.72;;;5.72;100.00
54512;BME280;40419;47.438;19.026;2023-04-15T04:09:42;98780.59;;;5.81;100.00
54512;BME280;40419;47.438;19.026;2023-04-15T04:12:10;98778.94;;;5.80;100.00
54512;BME280;40419;47.438;19.026;2023-04-15T04:14:35;98780.28;;;5.97;100.00
54512;BME280;40419;47.438;19.026;2023-04-15T04:17:03;98778.97;;;5.86;100.00
54512;BME280;40419;47.438;19.026;2023-04-15T04:19:34;98767.56;;;5.78;100.00
54512;BME280;40419;47.438;19.026;2023-04-15T04:22:02;98772.72;;;5.79;100.00
54512;BME280;40419;47.438;19.026;2023-04-15T04:24:27;98777.69;;;5.82;100.00
54512;BME280;40419;47.438;19.026;2023-04-15T04:26:58;98777.31;;;5.85;100.00
54512;BME280;40419;47.438;19.026;2023-04-15T04:29:25;98775.59;;;5.78;100.00
54512;BME280;40419;47.438;19.026;2023-04-15T04:31:51;98772.53;;;5.81;100.00
54512;BME280;40419;47.438;19.026;2023-04-15T04:34:17;98773.00;;;5.91;100.00
54512;BME280;40419;47.438;19.026;2023-04-15T04:36:42;98771.56;;;5.95;100.00
54512;BME280;40419;47.438;19.026;2023-04-15T04:39:11;98766.25;;;6.02;100.00
54512;BME280;40419;47.438;19.026;2023-04-15T04:41:36;98770.66;;;6.16;100.00
54512;BME280;40419;47.438;19.026;2023-04-15T04:44:02;98772.94;;;6.19;100.00
54512;BME280;40419;47.438;19.026;2023-04-15T04:46:27;98776.25;;;6.15;100.00
54512;BME280;40419;47.438;19.026;2023-04-15T04:48:53;98772.53;;;6.23;100.00
54512;BME280;40419;47.438;19.026;2023-04-15T04:51:22;98777.13;;;6.35;100.00
54512;BME280;40419;47.438;19.026;2023-04-15T04:53:47;98783.75;;;6.33;100.00
54512;BME280;40419;47.438;19.026;2023-04-15T04:56:13;98778.44;;;6.53;100.00
54512;BME280;40419;47.438;19.026;2023-04-15T04:58:41;98787.56;;;6.65;100.00
54512;BME280;40419;47.438;19.026;2023-04-15T05:01:06;98777.03;;;6.77;100.00
54512;BME280;40419;47.438;19.026;2023-04-15T05:03:32;98772.69;;;6.83;100.00
54512;BME280;40419;47.438;19.026;2023-04-15T05:06:00;98772.91;;;7.15;100.00
54512;BME280;40419;47.438;19.026;2023-04-15T05:08:27;98779.72;;;7.31;100.00
54512;BME280;40419;47.438;19.026;2023-04-15T05:10:57;98779.94;;;7.49;100.00
54512;BME280;40419;47.438;19.026;2023-04-15T05:13:23;98795.81;;;7.84;100.00
54512;BME280;40419;47.438;19.026;2023-04-15T05:15:48;98785.28;;;7.69;100.00
54512;BME280;40419;47.438;19.026;2023-04-15T05:18:17;98775.59;;;7.41;100.00
54512;BME280;40419;47.438;19.026;2023-04-15T05:20:45;98782.41;;;7.31;100.00
54512;BME280;40419;47.438;19.026;2023-04-15T05:23:10;98785.13;;;7.17;100.00
54512;BME280;40419;47.438;19.026;2023-04-15T05:25:36;98783.25;;;7.04;100.00
54512;BME280;40419;47.438;19.026;2023-04-15T05:28:04;98783.66;;;7.21;100.00
54512;BME280;40419;47.438;19.026;2023-04-15T05:30:34;98780.75;;;7.09;100.00
54512;BME280;40419;47.438;19.026;2023-04-15T05:33:03;98786.78;;;7.32;100.00
54512;BME280;40419;47.438;19.026;2023-04-15T05:35:31;98791.75;;;7.28;100.00
54512;BME280;40419;47.438;19.026;2023-04-15T05:38:02;98795.69;;;7.05;100.00
54512;BME280;40419;47.438;19.026;2023-04-15T05:40:30;98792.59;;;7.22;100.00
54512;BME280;40419;47.438;19.026;2023-04-15T05:42:56;98798.38;;;7.45;100.00
54512;BME280;40419;47.438;19.026;2023-04-15T05:45:21;98793.38;;;7.56;100.00
54512;BME280;40419;47.438;19.026;2023-04-15T05:47:47;98802.13;;;7.44;100.00
54512;BME280;40419;47.438;19.026;2023-04-15T05:50:15;98804.38;;;7.48;100.00
54512;BME280;40419;47.438;19.026;2023-04-15T05:52:41;98805.44;;;7.40;100.00
54512;BME280;40419;47.438;19.026;2023-04-15T05:55:09;98804.59;;;7.39;100.00
54512;BME280;40419;47.438;19.026;2023-04-15T05:57:34;98803.97;;;7.51;100.00
54512;BME280;40419;47.438;19.026;2023-04-15T05:59:59;98804.38;;;7.48;100.00
54512;BME280;40419;47.438;19.026;2023-04-15T06:02:35;98806.44;;;7.59;100.00
54512;BME280;40419;47.438;19.026;2023-04-15T06:05:03;98815.16;;;7.54;100.00
54512;BME280;40419;47.438;19.026;2023-04-15T06:07:29;98818.44;;;7.70;100.00
54512;BME280;40419;47.438;19.026;2023-04-15T06:09:57;98821.09;;;7.96;100.00
54512;BME280;40419;47.438;19.026;2023-04-15T06:12:25;98818.88;;;7.53;100.00
54512;BME280;40419;47.438;19.026;2023-04-15T06:14:50;98828.59;;;7.74;100.00
54512;BME280;40419;47.438;19.026;2023-04-15T06:17:20;98817.22;;;7.45;100.00
54512;BME280;40419;47.438;19.026;2023-04-15T06:19:46;98820.13;;;7.37;100.00
54512;BME280;40419;47.438;19.026;2023-04-15T06:22:22;98821.38;;;7.28;100.00
54512;BME280;40419;47.438;19.026;2023-04-15T06:24:49;98828.22;;;7.64;100.00
54512;BME280;40419;47.438;19.026;2023-04-15T06:27:17;98829.16;;;8.03;100.00
54512;BME280;40419;47.438;19.026;2023-04-15T06:29:43;98826.13;;;8.45;100.00
54512;BME280;40419;47.438;19.026;2023-04-15T06:32:09;98832.88;;;8.67;100.00
54512;BME280;40419;47.438;19.026;2023-04-15T06:34:35;98830.91;;;8.43;100.00
54512;BME280;40419;47.438;19.026;2023-04-15T06:37:05;98833.84;;;8.80;100.00
54512;BME280;40419;47.438;19.026;2023-04-15T06:39:33;98837.03;;;8.70;100.00
54512;BME280;40419;47.438;19.026;2023-04-15T06:42:01;98838.22;;;9.13;100.00
54512;BME280;40419;47.438;19.026;2023-04-15T06:44:31;98835.41;;;8.56;100.00
54512;BME280;40419;47.438;19.026;2023-04-15T06:46:59;98845.94;;;8.71;100.00
54512;BME280;40419;47.438;19.026;2023-04-15T06:49:28;98850.19;;;8.92;100.00
54512;BME280;40419;47.438;19.026;2023-04-15T06:51:53;98837.84;;;8.71;100.00
54512;BME280;40419;47.438;19.026;2023-04-15T06:54:22;98842.72;;;8.87;100.00
54512;BME280;40419;47.438;19.026;2023-04-15T06:56:50;98840.09;;;8.74;100.00
54512;BME280;40419;47.438;19.026;2023-04-15T06:59:16;98837.56;;;8.85;100.00
54512;BME280;40419;47.438;19.026;2023-04-15T07:01:42;98846.44;;;8.93;100.00
54512;BME280;40419;47.438;19.026;2023-04-15T07:04:12;98849.88;;;8.75;100.00
54512;BME280;40419;47.438;19.026;2023-04-15T07:06:37;98845.28;;;8.75;100.00
54512;BME280;40419;47.438;19.026;2023-04-15T07:09:08;98847.81;;;8.70;100.00
54512;BME280;40419;47.438;19.026;2023-04-15T07:11:38;98849.13;;;9.25;100.00
54512;BME280;40419;47.438;19.026;2023-04-15T07:14:06;98845.50;;;9.37;100.00
54512;BME280;40419;47.438;19.026;2023-04-15T07:16:34;98846.28;;;9.19;100.00
54512;BME280;40419;47.438;19.026;2023-04-15T07:19:02;98848.97;;;9.70;100.00
54512;BME280;40419;47.438;19.026;2023-04-15T07:21:28;98847.75;;;9.15;100.00
54512;BME280;40419;47.438;19.026;2023-04-15T07:23:54;98850.75;;;9.57;100.00
54512;BME280;40419;47.438;19.026;2023-04-15T07:26:19;98849.69;;;9.84;100.00
54512;BME280;40419;47.438;19.026;2023-04-15T07:28:45;98854.75;;;10.17;100.00
54512;BME280;40419;47.438;19.026;2023-04-15T07:31:12;98855.22;;;10.33;100.00
54512;BME280;40419;47.438;19.026;2023-04-15T07:33:37;98852.63;;;10.75;100.00
54512;BME280;40419;47.438;19.026;2023-04-15T07:36:06;98848.97;;;10.99;100.00
54512;BME280;40419;47.438;19.026;2023-04-15T07:38:31;98844.88;;;11.09;100.00
54512;BME280;40419;47.438;19.026;2023-04-15T07:41:01;98850.28;;;10.48;100.00
54512;BME280;40419;47.438;19.026;2023-04-15T07:43:30;98845.06;;;10.09;100.00
54512;BME280;40419;47.438;19.026;2023-04-15T07:46:00;98847.69;;;10.53;100.00
54512;BME280;40419;47.438;19.026;2023-04-15T07:48:28;98850.69;;;10.63;100.00
54512;BME280;40419;47.438;19.026;2023-04-15T07:50:56;98862.44;;;10.57;100.00
54512;BME280;40419;47.438;19.026;2023-04-15T07:53:24;98845.72;;;10.23;100.00
54512;BME280;40419;47.438;19.026;2023-04-15T07:55:50;98848.16;;;10.32;100.00
54512;BME280;40419;47.438;19.026;2023-04-15T07:58:18;98853.47;;;10.75;100.00
54512;BME280;40419;47.438;19.026;2023-04-15T08:00:46;98849.88;;;10.44;100.00
54512;BME280;40419;47.438;19.026;2023-04-15T08:03:11;98853.19;;;10.65;100.00
54512;BME280;40419;47.438;19.026;2023-04-15T08:05:37;98856.66;;;10.54;100.00
54512;BME280;40419;47.438;19.026;2023-04-15T08:08:02;98849.47;;;11.08;100.00
54512;BME280;40419;47.438;19.026;2023-04-15T08:10:30;98854.00;;;11.26;100.00
54512;BME280;40419;47.438;19.026;2023-04-15T08:12:58;98862.03;;;11.33;100.00
54512;BME280;40419;47.438;19.026;2023-04-15T08:15:24;98849.66;;;11.37;100.00
54512;BME280;40419;47.438;19.026;2023-04-15T08:17:50;98863.09;;;11.44;100.00
54512;BME280;40419;47.438;19.026;2023-04-15T08:20:20;98863.16;;;10.83;100.00
54512;BME280;40419;47.438;19.026;2023-04-15T08:22:48;98876.69;;;10.83;100.00
54512;BME280;40419;47.438;19.026;2023-04-15T08:25:17;98867.91;;;10.14;100.00
54512;BME280;40419;47.438;19.026;2023-04-15T08:27:46;98869.38;;;9.91;100.00
54512;BME280;40419;47.438;19.026;2023-04-15T08:30:15;98873.53;;;9.93;100.00
54512;BME280;40419;47.438;19.026;2023-04-15T08:32:46;98876.06;;;10.07;100.00
54512;BME280;40419;47.438;19.026;2023-04-15T08:35:12;98875.44;;;9.86;100.00
54512;BME280;40419;47.438;19.026;2023-04-15T08:37:41;98872.41;;;10.01;100.00
54512;BME280;40419;47.438;19.026;2023-04-15T08:40:10;98874.47;;;10.43;100.00
54512;BME280;40419;47.438;19.026;2023-04-15T08:42:43;98880.72;;;10.62;100.00
54512;BME280;40419;47.438;19.026;2023-04-15T08:45:12;98886.88;;;10.69;100.00
54512;BME280;40419;47.438;19.026;2023-04-15T08:47:41;98880.94;;;10.60;100.00
54512;BME280;40419;47.438;19.026;2023-04-15T08:50:10;98886.16;;;10.92;100.00
54512;BME280;40419;47.438;19.026;2023-04-15T08:52:36;98881.41;;;10.88;100.00
54512;BME280;40419;47.438;19.026;2023-04-15T08:55:04;98881.66;;;10.86;98.44
54512;BME280;40419;47.438;19.026;2023-04-15T08:57:34;98879.81;;;10.98;100.00
54512;BME280;40419;47.438;19.026;2023-04-15T09:00:03;98882.09;;;11.13;96.87
54512;BME280;40419;47.438;19.026;2023-04-15T09:02:28;98878.75;;;10.99;100.00
54512;BME280;40419;47.438;19.026;2023-04-15T09:04:54;98886.75;;;11.37;99.24
54512;BME280;40419;47.438;19.026;2023-04-15T09:07:22;98878.88;;;11.35;100.00
54512;BME280;40419;47.438;19.026;2023-04-15T09:09:49;98887.63;;;11.49;94.09
54512;BME280;40419;47.438;19.026;2023-04-15T09:12:17;98885.56;;;10.90;99.33
54512;BME280;40419;47.438;19.026;2023-04-15T09:14:45;98888.16;;;10.67;100.00
54512;BME280;40419;47.438;19.026;2023-04-15T09:17:17;98897.03;;;10.74;100.00
54512;BME280;40419;47.438;19.026;2023-04-15T09:19:43;98902.91;;;11.01;100.00
54512;BME280;40419;47.438;19.026;2023-04-15T09:22:13;98892.06;;;11.01;100.00
54512;BME280;40419;47.438;19.026;2023-04-15T09:24:40;98889.25;;;10.77;100.00
54512;BME280;40419;47.438;19.026;2023-04-15T09:27:10;98894.31;;;10.74;100.00
54512;BME280;40419;47.438;19.026;2023-04-15T09:29:40;98895.81;;;10.70;100.00
54512;BME280;40419;47.438;19.026;2023-04-15T09:32:13;98900.00;;;10.66;100.00
54512;BME280;40419;47.438;19.026;2023-04-15T09:34:42;98891.84;;;11.03;100.00
54512;BME280;40419;47.438;19.026;2023-04-15T09:37:07;98894.69;;;11.08;100.00
54512;BME280;40419;47.438;19.026;2023-04-15T09:39:44;98896.69;;;11.01;100.00
54512;BME280;40419;47.438;19.026;2023-04-15T09:42:12;98892.94;;;10.83;99.42
54512;BME280;40419;47.438;19.026;2023-04-15T09:44:38;98903.19;;;10.62;100.00
54512;BME280;40419;47.438;19.026;2023-04-15T09:47:05;98900.09;;;10.59;100.00
54512;BME280;40419;47.438;19.026;2023-04-15T09:49:30;98896.41;;;10.72;100.00
54512;BME280;40419;47.438;19.026;2023-04-15T09:52:01;98893.16;;;10.81;98.62
54512;BME280;40419;47.438;19.026;2023-04-15T09:54:34;98906.31;;;10.96;97.02
54512;BME280;40419;47.438;19.026;2023-04-15T09:57:09;98897.53;;;10.82;98.51
54512;BME280;40419;47.438;19.026;2023-04-15T09:59:35;98899.63;;;10.80;98.06
54512;BME280;40419;47.438;19.026;2023-04-15T10:02:05;98906.09;;;10.98;100.00
54512;BME280;40419;47.438;19.026;2023-04-15T10:04:41;98902.09;;;10.82;100.00
54512;BME280;40419;47.438;19.026;2023-04-15T10:07:11;98902.78;;;10.77;100.00
54512;BME280;40419;47.438;19.026;2023-04-15T10:09:44;98908.00;;;10.60;100.00
54512;BME280;40419;47.438;19.026;2023-04-15T10:12:10;98908.75;;;10.68;100.00
54512;BME280;40419;47.438;19.026;2023-04-15T10:14:39;98924.16;;;10.49;100.00
54512;BME280;40419;47.438;19.026;2023-04-15T10:17:10;98914.56;;;10.27;100.00
54512;BME280;40419;47.438;19.026;2023-04-15T10:19:39;98921.75;;;10.59;100.00
54512;BME280;40419;47.438;19.026;2023-04-15T10:22:05;98908.13;;;10.66;100.00
54512;BME280;40419;47.438;19.026;2023-04-15T10:24:32;98907.00;;;10.92;100.00
54512;BME280;40419;47.438;19.026;2023-04-15T10:26:59;98908.91;;;11.03;100.00
54512;BME280;40419;47.438;19.026;2023-04-15T10:29:27;98921.59;;;11.21;100.00
54512;BME280;40419;47.438;19.026;2023-04-15T10:31:54;98918.13;;;11.32;100.00
54512;BME280;40419;47.438;19.026;2023-04-15T10:34:23;98917.31;;;10.83;100.00
54512;BME280;40419;47.438;19.026;2023-04-15T10:36:50;98918.81;;;10.79;100.00
54512;BME280;40419;47.438;19.026;2023-04-15T10:42:16;98923.47;;;10.72;100.00
54512;BME280;40419;47.438;19.026;2023-04-15T10:44:44;98928.00;;;10.78;100.00
54512;BME280;40419;47.438;19.026;2023-04-15T10:47:21;98919.28;;;10.57;100.00
54512;BME280;40419;47.438;19.026;2023-04-15T10:49:51;98929.78;;;10.66;100.00
54512;BME280;40419;47.438;19.026;2023-04-15T10:52:22;98927.78;;;10.42;100.00
54512;BME280;40419;47.438;19.026;2023-04-15T10:57:39;98930.03;;;10.20;100.00
54512;BME280;40419;47.438;19.026;2023-04-15T11:05:51;98938.38;;;10.44;100.00
54512;BME280;40419;47.438;19.026;2023-04-15T11:08:52;98935.59;;;10.69;100.00
54512;BME280;40419;47.438;19.026;2023-04-15T11:11:18;98937.47;;;10.69;100.00
54512;BME280;40419;47.438;19.026;2023-04-15T11:13:50;98940.25;;;10.62;100.00
54512;BME280;40419;47.438;19.026;2023-04-15T11:16:17;98943.84;;;10.74;100.00
54512;BME280;40419;47.438;19.026;2023-04-15T11:18:53;98931.59;;;10.53;100.00
54512;BME280;40419;47.438;19.026;2023-04-15T11:21:23;98935.50;;;10.76;100.00
54512;BME280;40419;47.438;19.026;2023-04-15T11:23:49;98937.09;;;10.84;100.00
54512;BME280;40419;47.438;19.026;2023-04-15T11:26:15;98935.94;;;11.10;100.00
54512;BME280;40419;47.438;19.026;2023-04-15T11:28:44;98940.44;;;11.16;100.00
54512;BME280;40419;47.438;19.026;2023-04-15T11:31:12;98936.16;;;11.08;100.00
54512;BME280;40419;47.438;19.026;2023-04-15T11:36:25;98940.88;;;10.82;100.00
54512;BME280;40419;47.438;19.026;2023-04-15T11:38:55;98944.28;;;11.08;100.00
54512;BME280;40419;47.438;19.026;2023-04-15T11:41:22;98935.78;;;11.05;100.00
54512;BME280;40419;47.438;19.026;2023-04-15T11:43:49;98938.53;;;11.16;100.00
54512;BME280;40419;47.438;19.026;2023-04-15T11:46:15;98943.09;;;11.34;100.00
54512;BME280;40419;47.438;19.026;2023-04-15T11:48:42;98942.44;;;11.21;100.00
54512;BME280;40419;47.438;19.026;2023-04-15T11:51:12;98940.44;;;11.16;100.00
54512;BME280;40419;47.438;19.026;2023-04-15T11:53:41;98948.28;;;11.06;100.00
54512;BME280;40419;47.438;19.026;2023-04-15T11:56:09;98945.69;;;11.11;100.00
54512;BME280;40419;47.438;19.026;2023-04-15T11:58:37;98949.94;;;10.88;100.00
54512;BME280;40419;47.438;19.026;2023-04-15T12:01:06;98942.44;;;10.90;100.00
54512;BME280;40419;47.438;19.026;2023-04-15T12:03:45;98949.31;;;11.35;100.00
54512;BME280;40419;47.438;19.026;2023-04-15T12:06:24;98948.22;;;11.24;100.00
54512;BME280;40419;47.438;19.026;2023-04-15T12:13:55;98948.84;;;11.26;100.00
54512;BME280;40419;47.438;19.026;2023-04-15T12:16:24;98950.44;;;11.46;100.00
54512;BME280;40419;47.438;19.026;2023-04-15T12:18:54;98946.72;;;11.28;100.00
54512;BME280;40419;47.438;19.026;2023-04-15T12:21:21;98944.66;;;11.42;100.00
54512;BME280;40419;47.438;19.026;2023-04-15T12:23:48;98942.31;;;11.58;100.00
54512;BME280;40419;47.438;19.026;2023-04-15T12:26:36;98949.66;;;11.27;100.00
54512;BME280;40419;47.438;19.026;2023-04-15T12:29:08;98950.81;;;11.19;100.00
54512;BME280;40419;47.438;19.026;2023-04-15T12:31:54;98961.28;;;11.46;100.00
54512;BME280;40419;47.438;19.026;2023-04-15T12:34:31;98957.22;;;11.37;100.00
54512;BME280;40419;47.438;19.026;2023-04-15T12:37:02;98950.06;;;11.12;100.00
54512;BME280;40419;47.438;19.026;2023-04-15T12:39:30;98961.81;;;11.06;100.00
54512;BME280;40419;47.438;19.026;2023-04-15T12:42:02;98960.03;;;10.99;100.00
54512;BME280;40419;47.438;19.026;2023-04-15T12:44:28;98958.06;;;10.70;100.00
54512;BME280;40419;47.438;19.026;2023-04-15T12:46:56;98957.22;;;10.51;100.00
54512;BME280;40419;47.438;19.026;2023-04-15T12:49:23;98953.84;;;10.92;100.00
54512;BME280;40419;47.438;19.026;2023-04-15T12:51:52;98963.97;;;11.15;100.00
54512;BME280;40419;47.438;19.026;2023-04-15T12:54:26;98961.09;;;11.29;100.00
54512;BME280;40419;47.438;19.026;2023-04-15T12:57:00;98961.94;;;11.11;100.00
54512;BME280;40419;47.438;19.026;2023-04-15T12:59:29;98960.63;;;11.32;100.00
54512;BME280;40419;47.438;19.026;2023-04-15T13:01:55;98966.44;;;11.35;100.00
54512;BME280;40419;47.438;19.026;2023-04-15T13:04:23;98958.03;;;11.25;100.00
54512;BME280;40419;47.438;19.026;2023-04-15T13:06:51;98965.75;;;11.40;100.00
54512;BME280;40419;47.438;19.026;2023-04-15T13:09:17;98975.31;;;11.55;100.00
54512;BME280;40419;47.438;19.026;2023-04-15T13:11:45;98970.94;;;11.42;100.00